createdAt,value
2018-08-18T00:00:36.183Z,0.00
2018-08-18T00:01:36.163Z,0.00
2018-08-18T00:02:36.132Z,0.00
2018-08-18T00:03:36.107Z,0.00
2018-08-18T00:04:36.080Z,0.00
2018-08-18T00:05:36.057Z,0.00
2018-08-18T00:06:36.029Z,0.00
2018-08-18T00:07:36.004Z,0.00
2018-08-18T00:08:35.981Z,0.00
2018-08-18T00:09:35.953Z,0.00
2018-08-18T00:10:35.927Z,0.00
2018-08-18T00:11:35.902Z,0.00
2018-08-18T00:12:35.877Z,0.00
2018-08-18T00:13:35.852Z,0.00
2018-08-18T00:14:35.825Z,0.00
2018-08-18T00:15:35.799Z,0.00
2018-08-18T00:16:35.775Z,0.00
2018-08-18T00:17:35.749Z,0.00
2018-08-18T00:18:35.724Z,0.00
2018-08-18T00:19:35.703Z,0.00
2018-08-18T00:20:35.673Z,0.00
2018-08-18T00:21:35.648Z,0.00
2018-08-18T00:22:35.624Z,0.00
2018-08-18T00:23:35.597Z,0.00
2018-08-18T00:24:35.573Z,0.00
2018-08-18T00:25:35.548Z,0.00
2018-08-18T00:26:35.519Z,0.00
2018-08-18T00:27:35.498Z,0.00
2018-08-18T00:28:35.470Z,0.00
2018-08-18T00:29:35.445Z,0.00
2018-08-18T00:30:35.420Z,0.00
2018-08-18T00:31:35.394Z,0.00
2018-08-18T00:32:35.372Z,0.00
2018-08-18T00:33:35.344Z,0.00
2018-08-18T00:34:35.318Z,0.00
2018-08-18T00:35:35.299Z,0.00
2018-08-18T00:36:35.267Z,0.00
2018-08-18T00:37:35.243Z,0.00
2018-08-18T00:38:35.216Z,0.00
2018-08-18T00:39:35.191Z,0.00
2018-08-18T00:40:35.167Z,0.00
2018-08-18T00:41:35.141Z,0.00
2018-08-18T00:42:35.114Z,0.00
2018-08-18T00:43:35.093Z,0.00
2018-08-18T00:44:35.064Z,0.00
2018-08-18T00:45:35.040Z,0.00
2018-08-18T00:46:35.013Z,0.00
2018-08-18T00:47:34.994Z,0.00
2018-08-18T00:48:34.969Z,0.00
2018-08-18T00:49:34.938Z,0.00
2018-08-18T00:50:34.912Z,0.00
2018-08-18T00:51:34.886Z,0.00
2018-08-18T00:52:34.861Z,0.00
2018-08-18T00:53:34.837Z,0.00
2018-08-18T00:54:34.814Z,0.00
2018-08-18T00:55:34.787Z,0.00
2018-08-18T00:56:34.760Z,0.00
2018-08-18T00:57:34.735Z,0.00
2018-08-18T00:58:34.710Z,0.00
2018-08-18T00:59:34.684Z,0.00
2018-08-18T01:00:34.658Z,0.00
2018-08-18T01:01:34.633Z,0.00
2018-08-18T01:02:34.610Z,0.00
2018-08-18T01:03:34.582Z,0.00
2018-08-18T01:04:34.557Z,0.00
2018-08-18T01:05:34.531Z,0.00
2018-08-18T01:06:34.509Z,0.00
2018-08-18T01:07:34.479Z,0.00
2018-08-18T01:08:34.454Z,0.00
2018-08-18T01:09:34.429Z,0.00
2018-08-18T01:10:34.403Z,0.00
2018-08-18T01:11:34.444Z,0.00
2018-08-18T01:12:34.423Z,0.00
2018-08-18T01:13:34.381Z,0.00
2018-08-18T01:14:34.346Z,0.00
2018-08-18T01:15:34.330Z,0.00
2018-08-18T01:16:34.251Z,0.00
2018-08-18T01:17:34.226Z,0.00
2018-08-18T01:18:34.201Z,0.00
2018-08-18T01:19:34.175Z,0.00
2018-08-18T01:20:34.149Z,0.00
2018-08-18T01:21:34.152Z,0.00
2018-08-18T01:22:34.099Z,0.00
2018-08-18T01:23:34.072Z,0.00
2018-08-18T01:24:34.047Z,0.00
2018-08-18T01:25:34.023Z,0.00
2018-08-18T01:26:33.996Z,0.00
2018-08-18T01:27:33.972Z,0.00
2018-08-18T01:28:33.946Z,0.00
2018-08-18T01:29:33.921Z,0.00
2018-08-18T01:30:33.898Z,0.00
2018-08-18T01:31:33.871Z,0.00
2018-08-18T01:32:33.844Z,0.00
2018-08-18T01:33:33.818Z,0.00
2018-08-18T01:34:33.792Z,0.00
2018-08-18T01:35:33.767Z,0.00
2018-08-18T01:36:33.742Z,0.00
2018-08-18T01:37:33.717Z,0.00
2018-08-18T01:38:33.694Z,0.00
2018-08-18T01:39:33.667Z,0.00
2018-08-18T01:40:33.640Z,0.00
2018-08-18T01:41:33.616Z,0.00
2018-08-18T01:42:33.589Z,0.00
2018-08-18T01:43:33.563Z,0.00
2018-08-18T01:44:33.539Z,0.00
2018-08-18T01:45:33.517Z,0.00
2018-08-18T01:46:33.486Z,0.00
2018-08-18T01:47:33.469Z,0.00
2018-08-18T01:48:33.736Z,0.00
2018-08-18T01:49:33.416Z,0.00
2018-08-18T01:50:33.386Z,0.00
2018-08-18T01:51:33.363Z,0.00
2018-08-18T01:52:33.334Z,0.00
2018-08-18T01:53:33.327Z,0.00
2018-08-18T01:54:33.282Z,0.00
2018-08-18T01:55:33.256Z,0.00
2018-08-18T01:56:33.231Z,0.00
2018-08-18T01:57:33.207Z,0.00
2018-08-18T01:58:33.180Z,0.00
2018-08-18T01:59:33.154Z,0.00
2018-08-18T02:00:33.133Z,0.00
2018-08-18T02:01:33.105Z,0.00
2018-08-18T02:02:33.077Z,0.00
2018-08-18T02:03:33.051Z,0.00
2018-08-18T02:04:33.027Z,0.00
2018-08-18T02:05:33.001Z,0.00
2018-08-18T02:06:32.975Z,0.00
2018-08-18T02:07:32.949Z,0.00
2018-08-18T02:08:32.954Z,0.00
2018-08-18T02:09:32.905Z,0.00
2018-08-18T02:10:32.872Z,0.00
2018-08-18T02:11:32.850Z,0.00
2018-08-18T02:12:32.825Z,0.00
2018-08-18T02:13:32.801Z,0.00
2018-08-18T02:14:32.770Z,0.00
2018-08-18T02:15:32.744Z,0.00
2018-08-18T02:16:32.719Z,0.00
2018-08-18T02:17:32.693Z,0.00
2018-08-18T02:18:32.666Z,0.00
2018-08-18T02:19:32.642Z,0.00
2018-08-18T02:20:32.618Z,0.00
2018-08-18T02:21:32.591Z,0.00
2018-08-18T02:22:32.565Z,0.00
2018-08-18T02:23:32.539Z,0.00
2018-08-18T02:24:32.513Z,0.00
2018-08-18T02:25:32.488Z,0.00
2018-08-18T02:26:32.462Z,0.00
2018-08-18T02:27:32.436Z,0.00
2018-08-18T02:28:32.613Z,0.00
2018-08-18T02:29:32.386Z,0.00
2018-08-18T02:30:32.362Z,0.00
2018-08-18T02:31:32.334Z,0.00
2018-08-18T02:32:32.312Z,0.00
2018-08-18T02:33:32.491Z,0.00
2018-08-18T02:34:32.257Z,0.00
2018-08-18T02:35:32.231Z,0.00
2018-08-18T02:36:32.205Z,0.00
2018-08-18T02:37:32.179Z,0.00
2018-08-18T02:38:32.154Z,0.00
2018-08-18T02:39:32.127Z,0.00
2018-08-18T02:40:32.106Z,0.00
2018-08-18T02:41:32.077Z,0.00
2018-08-18T02:42:32.051Z,0.00
2018-08-18T02:43:32.026Z,0.00
2018-08-18T02:44:32.201Z,0.00
2018-08-18T02:45:31.973Z,0.00
2018-08-18T02:46:31.947Z,0.00
2018-08-18T02:47:31.923Z,0.00
2018-08-18T02:48:31.896Z,0.00
2018-08-18T02:49:31.870Z,0.00
2018-08-18T02:50:31.843Z,0.00
2018-08-18T02:51:31.821Z,0.00
2018-08-18T02:52:31.795Z,0.00
2018-08-18T02:53:31.772Z,0.00
2018-08-18T02:54:31.740Z,0.00
2018-08-18T02:55:31.713Z,0.00
2018-08-18T02:56:31.691Z,0.00
2018-08-18T02:57:31.662Z,0.00
2018-08-18T02:58:31.648Z,0.00
2018-08-18T02:59:31.612Z,0.00
2018-08-18T03:00:31.585Z,0.00
2018-08-18T03:01:31.560Z,0.00
2018-08-18T03:02:31.533Z,0.00
2018-08-18T03:03:31.508Z,0.00
2018-08-18T03:04:31.481Z,0.00
2018-08-18T03:05:31.456Z,0.00
2018-08-18T03:06:31.429Z,0.00
2018-08-18T03:07:31.404Z,0.00
2018-08-18T03:08:31.378Z,0.00
2018-08-18T03:09:31.353Z,0.00
2018-08-18T03:10:31.329Z,0.00
2018-08-18T03:11:31.302Z,0.00
2018-08-18T03:12:31.275Z,0.00
2018-08-18T03:13:31.251Z,0.00
2018-08-18T03:14:31.223Z,0.00
2018-08-18T03:15:31.197Z,0.00
2018-08-18T03:16:31.171Z,0.00
2018-08-18T03:17:31.145Z,0.00
2018-08-18T03:18:31.119Z,0.00
2018-08-18T03:19:31.093Z,0.00
2018-08-18T03:20:31.070Z,0.00
2018-08-18T03:21:31.041Z,0.00
2018-08-18T03:22:31.015Z,0.00
2018-08-18T03:23:30.989Z,0.00
2018-08-18T03:24:30.964Z,0.00
2018-08-18T03:25:30.937Z,0.00
2018-08-18T03:26:30.910Z,0.00
2018-08-18T03:27:30.885Z,0.00
2018-08-18T03:28:31.061Z,0.00
2018-08-18T03:30:13.187Z,0.00
2018-08-18T03:31:12.960Z,0.00
2018-08-18T03:32:13.133Z,0.00
2018-08-18T03:33:13.115Z,0.00
2018-08-18T03:34:12.890Z,0.00
2018-08-18T03:35:15.675Z,0.00
2018-08-18T03:36:55.785Z,0.00
2018-08-18T03:37:55.961Z,0.00
2018-08-18T03:38:55.129Z,0.00
2018-08-18T03:39:55.099Z,0.00
2018-08-18T03:40:55.073Z,0.00
2018-08-18T03:41:55.051Z,0.00
2018-08-18T03:42:54.818Z,0.00
2018-08-18T03:43:54.791Z,0.00
2018-08-18T03:44:54.967Z,0.00
2018-08-18T03:45:54.738Z,0.00
2018-08-18T03:46:54.718Z,0.00
2018-08-18T03:48:37.037Z,5.63
2018-08-18T03:49:36.809Z,5.63
2018-08-18T03:50:39.606Z,5.63
2018-08-18T03:51:36.959Z,5.63
2018-08-18T03:52:36.730Z,5.63
2018-08-18T03:53:36.708Z,11.25
2018-08-18T03:54:36.677Z,11.25
2018-08-18T03:55:36.650Z,11.25
2018-08-18T03:56:36.627Z,11.25
2018-08-18T03:57:36.597Z,16.88
2018-08-18T03:58:36.571Z,16.88
2018-08-18T03:59:36.546Z,16.88
2018-08-18T04:00:36.519Z,16.88
2018-08-18T04:01:36.507Z,22.50
2018-08-18T04:02:36.473Z,22.50
2018-08-18T04:03:36.444Z,28.13
2018-08-18T04:04:36.415Z,28.13
2018-08-18T04:05:36.385Z,33.75
2018-08-18T04:06:36.360Z,33.75
2018-08-18T04:07:36.336Z,33.75
2018-08-18T04:08:36.307Z,39.38
2018-08-18T04:09:36.280Z,45.00
2018-08-18T04:10:36.257Z,45.00
2018-08-18T04:11:36.228Z,50.63
2018-08-18T04:12:36.205Z,50.63
2018-08-18T04:13:36.175Z,50.63
2018-08-18T04:14:36.152Z,56.25
2018-08-18T04:15:36.125Z,56.25
2018-08-18T04:16:36.101Z,61.88
2018-08-18T04:17:36.069Z,61.88
2018-08-18T04:18:36.045Z,67.50
2018-08-18T04:19:36.017Z,73.13
2018-08-18T04:20:35.991Z,78.75
2018-08-18T04:21:35.964Z,84.38
2018-08-18T04:22:35.940Z,84.38
2018-08-18T04:23:35.912Z,101.25
2018-08-18T04:24:35.886Z,101.25
2018-08-18T04:25:35.860Z,106.88
2018-08-18T04:26:35.833Z,106.88
2018-08-18T04:27:35.806Z,101.25
2018-08-18T04:28:35.781Z,101.25
2018-08-18T04:29:35.755Z,106.88
2018-08-18T04:30:35.731Z,118.13
2018-08-18T04:31:35.702Z,129.38
2018-08-18T04:32:35.689Z,140.63
2018-08-18T04:33:35.650Z,151.88
2018-08-18T04:34:35.631Z,146.25
2018-08-18T04:35:35.597Z,135.00
2018-08-18T04:36:35.571Z,135.00
2018-08-18T04:37:35.548Z,140.63
2018-08-18T04:38:35.518Z,146.25
2018-08-18T04:39:35.493Z,151.88
2018-08-18T04:40:35.467Z,163.13
2018-08-18T04:41:35.439Z,180.00
2018-08-18T04:42:35.414Z,191.25
2018-08-18T04:43:35.391Z,219.38
2018-08-18T04:44:35.363Z,230.63
2018-08-18T04:45:35.346Z,230.63
2018-08-18T04:46:35.312Z,258.75
2018-08-18T04:47:35.285Z,258.75
2018-08-18T04:48:35.259Z,264.38
2018-08-18T04:49:35.232Z,275.63
2018-08-18T04:50:35.418Z,286.88
2018-08-18T04:51:35.181Z,292.50
2018-08-18T04:52:35.159Z,298.13
2018-08-18T04:53:35.134Z,309.38
2018-08-18T04:54:35.103Z,320.63
2018-08-18T04:55:35.077Z,331.88
2018-08-18T04:56:35.052Z,320.63
2018-08-18T04:57:35.031Z,326.25
2018-08-18T04:58:35.001Z,348.75
2018-08-18T04:59:34.976Z,354.38
2018-08-18T05:00:34.951Z,365.63
2018-08-18T05:01:34.929Z,376.88
2018-08-18T05:02:34.900Z,382.50
2018-08-18T05:03:34.946Z,399.38
2018-08-18T05:04:34.849Z,405.00
2018-08-18T05:05:34.825Z,416.25
2018-08-18T05:06:34.798Z,421.88
2018-08-18T05:07:34.775Z,433.13
2018-08-18T05:08:34.748Z,444.38
2018-08-18T05:09:34.735Z,450.00
2018-08-18T05:10:34.697Z,444.38
2018-08-18T05:11:34.709Z,461.25
2018-08-18T05:12:34.855Z,495.00
2018-08-18T05:13:34.623Z,511.88
2018-08-18T05:14:34.600Z,523.13
2018-08-18T05:15:34.577Z,534.38
2018-08-18T05:16:34.551Z,540.00
2018-08-18T05:17:34.524Z,551.25
2018-08-18T05:18:34.499Z,562.50
2018-08-18T05:19:34.479Z,579.38
2018-08-18T05:20:34.452Z,590.63
2018-08-18T05:21:34.426Z,607.50
2018-08-18T05:22:34.402Z,618.75
2018-08-18T05:23:34.378Z,635.63
2018-08-18T05:24:34.356Z,641.25
2018-08-18T05:25:34.329Z,663.75
2018-08-18T05:26:34.305Z,675.00
2018-08-18T05:27:34.281Z,691.88
2018-08-18T05:28:34.460Z,703.13
2018-08-18T05:29:34.238Z,720.00
2018-08-18T05:30:34.210Z,742.50
2018-08-18T05:31:34.186Z,759.38
2018-08-18T05:32:34.164Z,765.00
2018-08-18T05:33:34.341Z,776.25
2018-08-18T05:34:34.115Z,793.13
2018-08-18T05:35:34.092Z,798.75
2018-08-18T05:36:34.169Z,810.00
2018-08-18T05:37:36.669Z,838.13
2018-08-18T05:38:34.229Z,866.25
2018-08-18T05:39:36.823Z,877.50
2018-08-18T05:40:35.392Z,888.75
2018-08-18T05:41:34.154Z,922.50
2018-08-18T05:42:34.135Z,928.13
2018-08-18T05:44:58.413Z,928.13
2018-08-18T05:47:22.704Z,939.38
2018-08-18T05:48:22.672Z,956.25
2018-08-18T05:49:22.650Z,978.75
2018-08-18T05:50:23.839Z,1001.25
2018-08-18T05:51:22.605Z,1018.13
2018-08-18T05:52:22.582Z,1029.38
2018-08-18T05:53:24.978Z,1046.25
2018-08-18T05:54:22.541Z,1096.88
2018-08-18T05:55:22.513Z,1164.38
2018-08-18T05:56:22.300Z,1125.00
2018-08-18T05:57:22.468Z,1108.13
2018-08-18T05:58:22.446Z,1119.38
2018-08-18T06:00:04.577Z,1136.25
2018-08-18T06:01:04.353Z,1181.25
2018-08-18T06:02:04.331Z,1203.75
2018-08-18T06:03:04.512Z,1209.38
2018-08-18T06:04:04.287Z,1170.00
2018-08-18T06:05:04.265Z,1192.50
2018-08-18T06:06:05.664Z,1265.63
2018-08-18T06:07:04.435Z,1254.38
2018-08-18T06:08:04.201Z,1265.63
2018-08-18T06:11:10.841Z,1271.25
2018-08-18T06:12:10.875Z,1254.38
2018-08-18T06:13:10.801Z,1271.25
2018-08-18T06:15:35.085Z,1316.25
2018-08-18T06:16:35.064Z,1288.13
2018-08-18T06:17:35.856Z,1243.13
2018-08-18T06:18:35.023Z,1366.88
2018-08-18T06:19:35.002Z,1406.25
2018-08-18T06:20:34.985Z,1451.25
2018-08-18T06:21:34.759Z,1524.38
2018-08-18T06:22:34.940Z,1558.13
2018-08-18T06:23:34.920Z,1569.38
2018-08-18T06:24:34.696Z,1541.25
2018-08-18T06:25:34.880Z,1546.88
2018-08-18T06:26:34.858Z,1552.50
2018-08-18T06:27:34.636Z,1586.25
2018-08-18T06:28:34.616Z,1608.75
2018-08-18T06:29:34.600Z,1620.00
2018-08-18T06:31:16.931Z,1608.75
2018-08-18T06:32:16.709Z,1631.25
2018-08-18T06:33:16.692Z,1653.75
2018-08-18T06:34:16.676Z,1676.25
2018-08-18T06:35:16.853Z,1710.00
2018-08-18T06:36:17.845Z,1738.13
2018-08-18T06:37:16.813Z,1670.63
2018-08-18T06:38:16.792Z,1743.75
2018-08-18T06:39:16.575Z,1760.63
2018-08-18T06:40:16.557Z,1811.25
2018-08-18T07:18:31.081Z,2199.38
2018-08-18T07:19:30.807Z,2182.50
2018-08-18T07:20:30.892Z,2227.50
2018-08-18T07:21:30.873Z,2216.25
2018-08-18T07:22:30.854Z,2295.00
2018-08-18T07:23:30.834Z,2306.25
2018-08-18T07:24:33.438Z,2255.63
2018-08-18T07:25:30.798Z,2233.13
2018-08-18T07:26:30.780Z,2250.00
2018-08-18T07:27:30.761Z,2250.00
2018-08-18T07:28:30.558Z,2323.13
2018-08-18T07:33:46.301Z,2446.88
2018-08-18T07:35:25.802Z,2379.38
2018-08-18T07:36:25.581Z,2407.50
2018-08-18T07:37:25.615Z,2435.63
2018-08-18T07:38:25.750Z,2390.63
2018-08-18T07:39:25.529Z,2340.00
2018-08-18T07:40:26.522Z,2385.00
2018-08-18T07:41:25.699Z,2446.88
2018-08-18T07:42:25.681Z,2435.63
2018-08-18T07:43:25.662Z,2356.88
2018-08-18T07:44:25.647Z,2469.38
2018-08-18T07:45:25.424Z,2559.38
2018-08-18T07:46:25.641Z,2430.00
2018-08-18T07:47:25.392Z,2435.63
2018-08-18T07:48:25.372Z,2531.25
2018-08-18T07:49:25.362Z,2491.88
2018-08-18T07:50:25.341Z,2469.38
2018-08-18T07:51:25.322Z,2469.38
2018-08-18T07:52:25.310Z,2441.25
2018-08-18T07:53:25.318Z,2514.38
2018-08-18T07:54:25.269Z,2587.50
2018-08-18T07:55:25.252Z,2508.75
2018-08-18T07:56:25.237Z,2368.13
2018-08-18T07:57:25.218Z,2345.63
2018-08-18T07:58:25.209Z,2548.13
2018-08-18T07:59:25.183Z,2446.88
2018-08-18T08:00:25.164Z,2559.38
2018-08-18T08:01:25.146Z,2542.50
2018-08-18T08:02:25.128Z,2632.50
2018-08-18T08:03:25.109Z,2536.88
2018-08-18T08:04:25.096Z,2576.25
2018-08-18T08:05:25.080Z,2441.25
2018-08-18T08:06:25.057Z,2385.00
2018-08-18T08:07:25.039Z,2373.75
2018-08-18T08:08:25.021Z,2430.00
2018-08-18T08:09:25.205Z,2570.63
2018-08-18T08:10:24.986Z,2761.88
2018-08-18T08:11:24.968Z,2615.63
2018-08-18T08:12:25.015Z,2643.75
2018-08-18T08:13:24.930Z,2683.13
2018-08-18T08:14:24.912Z,2531.25
2018-08-18T08:15:24.897Z,2311.88
2018-08-18T08:16:24.876Z,2250.00
2018-08-18T08:17:24.859Z,2340.00
2018-08-18T08:18:24.843Z,2441.25
2018-08-18T08:19:24.826Z,2418.75
2018-08-18T08:20:24.811Z,2548.13
2018-08-18T08:21:24.788Z,2407.50
2018-08-18T08:22:24.770Z,2581.88
2018-08-18T08:23:24.752Z,2356.88
2018-08-18T08:24:24.733Z,2261.25
2018-08-18T08:25:24.716Z,2323.13
2018-08-18T08:26:24.700Z,2317.50
2018-08-18T08:27:24.680Z,2306.25
2018-08-18T08:28:24.661Z,2351.25
2018-08-18T08:29:24.646Z,2475.00
2018-08-18T08:30:24.627Z,1575.00
2018-08-18T08:31:24.607Z,2632.50
2018-08-18T08:32:24.589Z,2666.25
2018-08-18T08:33:24.571Z,2694.38
2018-08-18T08:34:24.554Z,2716.88
2018-08-18T08:35:24.536Z,2767.50
2018-08-18T08:36:24.518Z,2722.50
2018-08-18T08:37:24.507Z,2716.88
2018-08-18T08:38:24.483Z,2700.00
2018-08-18T08:39:24.467Z,2806.88
2018-08-18T08:40:24.446Z,2795.63
2018-08-18T08:41:24.431Z,2761.88
2018-08-18T08:42:24.616Z,2750.63
2018-08-18T08:43:24.452Z,2694.38
2018-08-18T08:44:24.376Z,2677.50
2018-08-18T08:45:24.560Z,2694.38
2018-08-18T08:46:24.342Z,2671.88
2018-08-18T08:47:24.530Z,2716.88
2018-08-18T08:48:24.308Z,2812.50
2018-08-18T08:49:24.291Z,2773.13
2018-08-18T08:50:24.278Z,2896.88
2018-08-18T08:51:24.258Z,2857.50
2018-08-18T08:52:24.240Z,2688.75
2018-08-18T08:53:24.222Z,2773.13
2018-08-18T08:54:24.208Z,2739.38
2018-08-18T08:55:24.188Z,2795.63
2018-08-18T08:56:24.200Z,2795.63
2018-08-18T08:57:24.155Z,2728.13
2018-08-18T08:58:24.137Z,2784.38
2018-08-18T08:59:24.325Z,2739.38
2018-08-18T09:00:24.113Z,2806.88
2018-08-18T09:01:24.099Z,2970.00
2018-08-18T09:02:24.072Z,2986.88
2018-08-18T09:03:24.257Z,2812.50
2018-08-18T09:04:24.035Z,2700.00
2018-08-18T09:05:24.020Z,2711.25
2018-08-18T09:07:06.363Z,2536.88
2018-08-18T09:08:06.348Z,2863.13
2018-08-18T09:09:48.488Z,2812.50
2018-08-18T09:10:48.472Z,1310.63
2018-08-18T09:11:48.252Z,2205.00
2018-08-18T09:12:48.238Z,1749.38
2018-08-18T09:13:48.219Z,2604.38
2018-08-18T09:14:48.245Z,2711.25
2018-08-18T09:15:48.186Z,1350.00
2018-08-18T09:16:48.377Z,1288.13
2018-08-18T09:17:48.152Z,3065.63
2018-08-18T09:18:48.133Z,3133.13
2018-08-18T09:19:48.317Z,1738.13
2018-08-18T09:20:48.109Z,3380.63
2018-08-18T09:21:48.090Z,3470.63
2018-08-18T09:22:48.067Z,1535.63
2018-08-18T09:23:48.046Z,1631.25
2018-08-18T09:24:48.030Z,3408.75
2018-08-18T09:25:48.033Z,1462.50
2018-08-18T09:26:47.994Z,1282.50
2018-08-18T09:27:47.980Z,1288.13
2018-08-18T09:28:47.960Z,1310.63
2018-08-18T09:29:47.945Z,3391.88
2018-08-18T09:30:47.927Z,3420.00
2018-08-18T09:31:49.324Z,3678.75
2018-08-18T09:32:47.892Z,3566.25
2018-08-18T09:33:48.075Z,3538.13
2018-08-18T09:34:48.058Z,3341.25
2018-08-18T09:35:48.044Z,2705.63
2018-08-18T09:36:48.032Z,1636.88
2018-08-18T09:37:48.007Z,2970.00
2018-08-18T09:38:47.990Z,1485.00
2018-08-18T09:39:47.772Z,3161.25
2018-08-18T09:40:47.753Z,2835.00
2018-08-18T09:41:47.736Z,1417.50
2018-08-18T09:43:30.080Z,1181.25
2018-08-18T09:44:30.061Z,1203.75
2018-08-18T09:45:30.141Z,2975.63
2018-08-18T09:46:29.824Z,2475.00
2018-08-18T09:47:29.807Z,2784.38
2018-08-18T09:48:29.796Z,2795.63
2018-08-18T09:49:29.771Z,2548.13
2018-08-18T09:50:29.753Z,2497.50
2018-08-18T09:51:29.735Z,2531.25
2018-08-18T09:52:29.919Z,3026.25
2018-08-18T09:53:29.698Z,3262.50
2018-08-18T09:54:29.681Z,3262.50
2018-08-18T09:55:29.663Z,3262.50
2018-08-18T09:56:29.644Z,3268.13
2018-08-18T09:57:32.451Z,3498.75
2018-08-18T09:58:29.819Z,3560.63
2018-08-18T09:59:29.795Z,3515.63
2018-08-18T10:00:29.578Z,3408.75
2018-08-18T10:01:29.556Z,3110.63
2018-08-18T10:02:29.541Z,3318.75
2018-08-18T10:03:29.523Z,3301.88
2018-08-18T10:04:29.506Z,3397.50
2018-08-18T10:05:33.139Z,3391.88
2018-08-18T10:06:29.511Z,3487.50
2018-08-18T10:07:29.456Z,3622.50
2018-08-18T10:09:53.956Z,3639.38
2018-08-18T10:10:53.737Z,3650.63
2018-08-18T10:11:53.720Z,3538.13
2018-08-18T10:12:53.705Z,3526.88
2018-08-18T10:13:53.692Z,3515.63
2018-08-18T10:14:53.873Z,3380.63
2018-08-18T10:15:53.856Z,3465.00
2018-08-18T10:16:53.637Z,3706.88
2018-08-18T10:17:53.824Z,3566.25
2018-08-18T10:18:53.806Z,3678.75
2018-08-18T10:20:35.948Z,3639.38
2018-08-18T10:21:35.733Z,3746.25
2018-08-18T10:22:35.713Z,3785.63
2018-08-18T10:23:35.697Z,3706.88
2018-08-18T10:24:35.883Z,3712.50
2018-08-18T10:25:35.869Z,3616.88
2018-08-18T10:26:35.649Z,3673.13
2018-08-18T10:27:35.633Z,3616.88
2018-08-18T10:28:35.622Z,3183.75
2018-08-18T10:29:35.602Z,3240.00
2018-08-18T10:30:35.585Z,3571.88
2018-08-18T10:31:35.772Z,3538.13
2018-08-18T10:32:35.757Z,3588.75
2018-08-18T10:33:35.740Z,3712.50
2018-08-18T10:34:35.727Z,3791.25
2018-08-18T10:35:35.710Z,3684.38
2018-08-18T10:36:35.698Z,3768.75
2018-08-18T10:37:35.476Z,3791.25
2018-08-18T10:38:35.662Z,3780.00
2018-08-18T10:39:35.459Z,3712.50
2018-08-18T10:40:35.430Z,3678.75
2018-08-18T10:41:35.417Z,3673.13
2018-08-18T10:42:35.399Z,3600.00
2018-08-18T10:43:35.386Z,3825.00
2018-08-18T10:44:35.369Z,3825.00
2018-08-18T10:45:35.362Z,3757.50
2018-08-18T10:46:35.338Z,3690.00
2018-08-18T10:47:35.324Z,3819.38
2018-08-18T10:49:35.293Z,3673.13
2018-08-18T11:14:40.217Z,3999.38
2018-08-18T11:15:40.201Z,3875.63
2018-08-18T11:16:40.188Z,3864.38
2018-08-18T11:17:40.174Z,3746.25
2018-08-18T11:18:39.956Z,3583.13
2018-08-18T11:19:39.940Z,3493.13
2018-08-18T11:20:39.927Z,3594.38
2018-08-18T11:21:39.947Z,3813.75
2018-08-18T11:22:39.898Z,3555.00
2018-08-18T11:23:40.086Z,3515.63
2018-08-18T11:24:39.869Z,3661.88
2018-08-18T11:25:39.855Z,3667.50
2018-08-18T11:26:39.843Z,3819.38
2018-08-18T11:27:39.849Z,3628.13
2018-08-18T11:28:39.950Z,3667.50
2018-08-18T11:29:39.803Z,3847.50
2018-08-18T11:30:39.785Z,3853.13
2018-08-18T11:31:39.770Z,3813.75
2018-08-18T11:32:39.756Z,3965.63
2018-08-18T11:33:39.742Z,3864.38
2018-08-18T11:34:39.728Z,3875.63
2018-08-18T11:35:39.716Z,3943.13
2018-08-18T11:36:39.903Z,3892.50
2018-08-18T11:37:39.687Z,3819.38
2018-08-18T11:38:39.674Z,3847.50
2018-08-18T11:39:39.661Z,3853.13
2018-08-18T11:40:39.645Z,3701.25
2018-08-18T11:41:39.713Z,3847.50
2018-08-18T11:42:39.619Z,3853.13
2018-08-18T11:43:39.604Z,3870.00
2018-08-18T11:44:39.591Z,3853.13
2018-08-18T11:45:39.578Z,3881.25
2018-08-18T11:46:39.564Z,3875.63
2018-08-18T11:47:39.550Z,3903.75
2018-08-18T11:48:39.536Z,3931.88
2018-08-18T11:49:39.522Z,3903.75
2018-08-18T11:50:39.509Z,3853.13
2018-08-18T11:51:39.496Z,3808.13
2018-08-18T11:54:46.163Z,3656.25
2018-08-18T11:55:45.949Z,3864.38
2018-08-18T11:56:45.931Z,3915.00
2018-08-18T11:57:45.919Z,3706.88
2018-08-18T11:58:45.905Z,3701.25
2018-08-18T11:59:45.889Z,3853.13
2018-08-18T12:00:45.879Z,3915.00
2018-08-18T12:01:45.934Z,3836.25
2018-08-18T12:02:45.849Z,3881.25
2018-08-18T12:03:45.834Z,3701.25
2018-08-18T12:04:45.821Z,3886.88
2018-08-18T12:05:45.814Z,3864.38
2018-08-18T12:06:45.794Z,3763.13
2018-08-18T12:07:46.280Z,3695.63
2018-08-18T12:08:45.968Z,3746.25
2018-08-18T12:09:45.752Z,3746.25
2018-08-18T12:11:28.101Z,3881.25
2018-08-18T12:12:27.885Z,3768.75
2018-08-18T12:13:27.881Z,3751.88
2018-08-18T12:14:27.858Z,2998.13
2018-08-18T12:15:27.844Z,3639.38
2018-08-18T12:16:27.830Z,3735.00
2018-08-18T12:17:27.821Z,3583.13
2018-08-18T12:18:27.803Z,3684.38
2018-08-18T12:19:29.193Z,3273.75
2018-08-18T12:20:28.035Z,3526.88
2018-08-18T12:21:27.964Z,3684.38
2018-08-18T12:22:27.752Z,3740.63
2018-08-18T12:23:27.733Z,3802.50
2018-08-18T12:24:27.724Z,3791.25
2018-08-18T12:25:27.707Z,3875.63
2018-08-18T12:26:27.700Z,3819.38
2018-08-18T12:27:27.687Z,3735.00
2018-08-18T12:28:27.669Z,3481.88
2018-08-18T12:29:27.752Z,3481.88
2018-08-18T12:30:27.639Z,3060.00
2018-08-18T12:31:27.626Z,3577.50
2018-08-18T12:32:27.612Z,3735.00
2018-08-18T12:33:27.598Z,3515.63
2018-08-18T12:34:27.584Z,3526.88
2018-08-18T12:35:27.573Z,3217.50
2018-08-18T12:36:28.206Z,2548.13
2018-08-18T12:37:27.672Z,2323.13
2018-08-18T12:38:27.532Z,2328.75
2018-08-18T12:39:27.515Z,2733.75
2018-08-18T12:40:27.500Z,2756.25
2018-08-18T12:41:27.488Z,2885.63
2018-08-18T12:42:27.474Z,3256.88
2018-08-18T12:43:27.466Z,3459.38
2018-08-18T12:44:27.445Z,3695.63
2018-08-18T12:45:27.631Z,3346.88
2018-08-18T12:46:27.418Z,3380.63
2018-08-18T12:47:27.402Z,3571.88
2018-08-18T12:48:27.385Z,3605.63
2018-08-18T12:49:27.413Z,3571.88
2018-08-18T12:50:27.355Z,3661.88
2018-08-18T12:51:27.344Z,3796.88
2018-08-18T12:52:27.326Z,3886.88
2018-08-18T12:53:27.313Z,3993.75
2018-08-18T12:54:27.299Z,3960.00
2018-08-18T12:55:27.285Z,3723.75
2018-08-18T12:56:27.269Z,3650.63
2018-08-18T12:58:09.726Z,3791.25
2018-08-18T12:59:09.604Z,3740.63
2018-08-18T13:17:43.562Z,3712.50
2018-08-18T13:18:43.475Z,3420.00
2018-08-18T13:19:43.330Z,3510.00
2018-08-18T13:20:43.343Z,3526.88
2018-08-18T13:21:43.299Z,3487.50
2018-08-18T13:22:43.283Z,3403.13
2018-08-18T13:23:43.269Z,3223.13
2018-08-18T13:24:43.255Z,3234.38
2018-08-18T13:25:43.441Z,3442.50
2018-08-18T13:26:43.224Z,3330.00
2018-08-18T13:27:43.209Z,3301.88
2018-08-18T13:28:43.195Z,3431.25
2018-08-18T13:29:43.178Z,3290.63
2018-08-18T13:30:43.366Z,3346.88
2018-08-18T13:31:43.151Z,3571.88
2018-08-18T13:32:43.138Z,3566.25
2018-08-18T13:33:43.122Z,3583.13
2018-08-18T13:34:43.115Z,3307.50
2018-08-18T13:35:43.093Z,3386.25
2018-08-18T13:36:43.080Z,3279.38
2018-08-18T13:37:43.067Z,3138.75
2018-08-18T13:38:43.251Z,3043.13
2018-08-18T13:39:43.238Z,3009.38
2018-08-18T13:40:43.021Z,3020.63
2018-08-18T13:41:43.007Z,2874.38
2018-08-18T13:42:43.202Z,2941.88
2018-08-18T13:43:43.184Z,2930.63
2018-08-18T13:44:43.168Z,2598.75
2018-08-18T13:45:43.153Z,2458.13
2018-08-18T13:46:42.963Z,2407.50
2018-08-18T13:47:42.922Z,2311.88
2018-08-18T13:48:42.910Z,2278.13
2018-08-18T13:49:42.895Z,2171.25
2018-08-18T13:50:42.884Z,2160.00
2018-08-18T13:51:42.870Z,2216.25
2018-08-18T13:52:42.876Z,2182.50
2018-08-18T13:53:42.838Z,2182.50
2018-08-18T13:54:42.824Z,2581.88
2018-08-18T13:55:42.808Z,3003.75
2018-08-18T13:56:42.793Z,3195.00
2018-08-18T13:57:42.783Z,3796.88
2018-08-18T13:58:42.796Z,3830.63
2018-08-18T13:59:42.754Z,3661.88
2018-08-18T14:00:42.742Z,3892.50
2018-08-18T14:01:42.722Z,4100.63
2018-08-18T14:02:42.706Z,4061.25
2018-08-18T14:03:42.692Z,3420.00
2018-08-18T14:04:42.880Z,3330.00
2018-08-18T14:05:42.670Z,3324.38
2018-08-18T14:06:42.649Z,3296.25
2018-08-18T14:07:42.633Z,3296.25
2018-08-18T14:08:42.620Z,3459.38
2018-08-18T14:09:42.609Z,3436.88
2018-08-18T14:10:42.592Z,3436.88
2018-08-18T14:11:42.574Z,3549.38
2018-08-18T14:12:42.560Z,3403.13
2018-08-18T14:13:42.548Z,3318.75